createdAt,value
2019-01-28T01:38:20.545Z,29.81
2019-01-28T01:40:27.922Z,28.93
2019-01-28T01:42:35.320Z,27.75
2019-01-28T01:44:43.240Z,27.18
2019-01-28T01:46:50.659Z,26.19
2019-01-28T01:48:57.795Z,26.31
2019-01-28T01:51:05.211Z,26.52
2019-01-28T01:53:12.631Z,26.17
2019-01-28T01:55:19.654Z,26.33
2019-01-28T01:57:26.962Z,26.50
2019-01-28T01:59:34.751Z,26.45
2019-01-28T02:01:42.081Z,26.23
2019-01-28T02:03:49.937Z,26.07
2019-01-28T02:05:57.199Z,26.20
2019-01-28T02:08:05.941Z,26.34
2019-01-28T02:10:15.271Z,26.48
2019-01-28T02:12:22.355Z,26.20
2019-01-28T02:14:29.674Z,25.82
2019-01-28T02:16:38.664Z,26.07
2019-01-28T02:18:45.939Z,26.19
2019-01-28T02:20:53.294Z,26.56
2019-01-28T02:23:01.005Z,26.28
2019-01-28T02:25:09.405Z,25.60
2019-01-28T02:27:18.024Z,25.78
2019-01-28T02:29:45.335Z,25.80
2019-01-28T02:31:52.445Z,25.45
2019-01-28T02:34:00.179Z,25.16
2019-01-28T02:36:07.535Z,24.99
2019-01-28T02:38:17.597Z,25.15
2019-01-28T02:40:25.759Z,24.91
2019-01-28T02:42:33.007Z,25.08
2019-01-28T02:44:40.821Z,25.18
2019-01-28T02:46:48.875Z,25.30
2019-01-28T02:48:56.663Z,25.78
2019-01-28T02:51:04.026Z,25.57
2019-01-28T02:53:11.160Z,25.51
2019-01-28T02:55:19.656Z,25.55
2019-01-28T02:57:27.465Z,25.30
2019-01-28T02:59:34.784Z,24.87
2019-01-28T03:01:42.156Z,25.12
2019-01-28T03:03:49.570Z,25.15
2019-01-28T03:05:56.696Z,24.86
2019-01-28T03:08:03.984Z,24.67
2019-01-28T03:10:14.532Z,24.48
2019-01-28T03:12:23.236Z,24.39
2019-01-28T03:14:30.600Z,24.51
2019-01-28T03:16:38.001Z,24.53
2019-01-28T03:18:48.040Z,24.51
2019-01-28T03:20:55.284Z,24.57
2019-01-28T03:23:02.585Z,24.79
2019-01-28T03:25:10.678Z,24.98
2019-01-28T03:27:18.887Z,25.05
2019-01-28T03:29:26.920Z,24.94
2019-01-28T03:31:34.179Z,25.22
2019-01-28T03:33:41.387Z,25.16
2019-01-28T03:35:48.827Z,24.70
2019-01-28T03:37:56.166Z,24.76
2019-01-28T03:40:03.933Z,24.65
2019-01-28T03:42:11.312Z,24.58
2019-01-28T03:44:19.076Z,24.51
2019-01-28T03:46:26.738Z,24.73
2019-01-28T03:48:34.139Z,24.59
2019-01-28T03:50:41.895Z,24.54
2019-01-28T03:52:49.154Z,24.66
2019-01-28T03:54:56.815Z,24.75
2019-01-28T03:57:04.548Z,24.20
2019-01-28T03:59:12.020Z,24.72
2019-01-28T04:01:20.565Z,24.83
2019-01-28T04:03:27.773Z,25.04
2019-01-28T04:05:35.619Z,25.35
2019-01-28T04:07:42.910Z,24.99
2019-01-28T04:09:50.873Z,25.09
2019-01-28T04:11:58.785Z,25.03
2019-01-28T04:14:06.495Z,24.71
2019-01-28T04:16:13.849Z,25.14
2019-01-28T04:18:21.527Z,24.79
2019-01-28T04:20:28.676Z,24.79
2019-01-28T04:22:35.814Z,24.80
2019-01-28T04:24:42.998Z,24.78
2019-01-28T04:26:51.657Z,25.13
2019-01-28T04:28:58.800Z,24.50
2019-01-28T04:31:05.599Z,24.36
2019-01-28T04:33:13.880Z,24.67
2019-01-28T04:35:21.320Z,24.79
2019-01-28T04:37:29.410Z,24.85
2019-01-28T04:39:36.754Z,24.94
2019-01-28T04:41:44.076Z,24.97
2019-01-28T04:43:51.637Z,25.08
2019-01-28T04:45:58.532Z,25.31
2019-01-28T04:48:05.261Z,25.29
2019-01-28T04:50:16.766Z,25.32
2019-01-28T04:52:25.455Z,25.32
2019-01-28T04:54:34.926Z,25.06
2019-01-28T04:56:43.423Z,25.15
2019-01-28T04:58:51.122Z,25.42
2019-01-28T05:00:58.422Z,24.83
2019-01-28T05:03:05.597Z,24.44
2019-01-28T05:05:12.926Z,24.37
2019-01-28T05:07:20.502Z,24.52
2019-01-28T05:09:28.304Z,24.57
2019-01-28T05:11:37.396Z,24.69
2019-01-28T05:13:44.548Z,24.69
2019-01-28T05:15:52.416Z,25.11
2019-01-28T05:18:00.636Z,25.25
2019-01-28T05:20:09.692Z,25.32
2019-01-28T05:22:18.764Z,25.49
2019-01-28T05:24:26.736Z,25.45
2019-01-28T05:26:34.085Z,24.95
2019-01-28T05:28:41.475Z,24.78
2019-01-28T05:30:48.858Z,24.73
2019-01-28T05:32:56.896Z,24.73
2019-01-28T05:35:04.196Z,24.87
2019-01-28T05:37:12.087Z,24.90
2019-01-28T05:39:19.441Z,24.74
2019-01-28T05:41:27.326Z,24.80
2019-01-28T05:43:34.598Z,24.97
2019-01-28T05:45:42.254Z,25.15
2019-01-28T05:47:50.119Z,25.46
2019-01-28T05:49:57.411Z,25.58
2019-01-28T05:52:05.578Z,25.53
2019-01-28T05:54:13.282Z,25.65
2019-01-28T05:56:20.467Z,26.20
2019-01-28T05:58:28.510Z,26.05
2019-01-28T06:00:45.374Z,26.07
2019-01-28T06:02:53.321Z,25.78
2019-01-28T06:05:00.399Z,25.30
2019-01-28T06:07:07.869Z,25.63
2019-01-28T06:09:18.346Z,25.16
2019-01-28T06:11:26.672Z,25.57
2019-01-28T06:13:33.937Z,24.98
2019-01-28T06:15:41.494Z,24.89
2019-01-28T06:17:49.621Z,24.69
2019-01-28T06:19:56.771Z,24.96
2019-01-28T06:22:04.650Z,25.27
2019-01-28T06:24:11.829Z,25.02
2019-01-28T06:26:19.159Z,25.19
2019-01-28T06:28:26.462Z,25.07
2019-01-28T06:30:34.115Z,25.23
2019-01-28T06:32:41.427Z,25.23
2019-01-28T06:34:48.821Z,25.37
2019-01-28T06:36:55.964Z,25.24
2019-01-28T06:39:03.130Z,25.22
2019-01-28T06:41:11.254Z,25.36
2019-01-28T06:43:18.404Z,25.26
2019-01-28T06:45:25.586Z,25.36
2019-01-28T06:47:33.699Z,25.39
2019-01-28T06:49:40.685Z,25.51
2019-01-28T06:51:48.050Z,25.63
2019-01-28T06:53:56.067Z,25.43
2019-01-28T06:56:03.359Z,25.71
2019-01-28T06:58:10.644Z,25.48
2019-01-28T07:00:27.028Z,25.76
2019-01-28T07:02:35.319Z,25.92
2019-01-28T07:04:42.430Z,25.46
2019-01-28T07:06:50.451Z,25.57
2019-01-28T07:08:58.296Z,25.81
2019-01-28T07:11:05.778Z,25.77
2019-01-28T07:13:14.137Z,25.93
2019-01-28T07:15:22.027Z,25.93
2019-01-28T07:17:29.382Z,26.04
2019-01-28T07:19:37.232Z,25.94
2019-01-28T07:21:44.497Z,25.89
2019-01-28T07:23:52.016Z,26.01
2019-01-28T07:25:59.175Z,25.79
2019-01-28T07:28:06.639Z,25.78
2019-01-28T07:30:17.945Z,25.57
2019-01-28T07:32:25.263Z,26.05
2019-01-28T07:34:32.481Z,26.48
2019-01-28T07:36:39.842Z,26.71
2019-01-28T07:38:47.237Z,26.38
2019-01-28T07:40:54.640Z,25.58
2019-01-28T07:43:01.800Z,25.51
2019-01-28T07:45:12.496Z,25.77
2019-01-28T07:47:19.707Z,25.57
2019-01-28T07:49:26.942Z,25.98
2019-01-28T07:51:34.662Z,25.88
2019-01-28T07:53:41.845Z,25.92
2019-01-28T07:55:49.623Z,26.08
2019-01-28T07:57:56.728Z,26.04
2019-01-28T08:00:04.711Z,26.04
2019-01-28T08:02:11.976Z,26.11
2019-01-28T08:04:19.295Z,26.20
2019-01-28T08:06:26.609Z,26.05
2019-01-28T08:08:34.061Z,26.27
2019-01-28T08:10:41.132Z,26.25
2019-01-28T08:12:48.798Z,26.34
2019-01-28T08:14:55.925Z,26.35
2019-01-28T08:17:03.140Z,26.44
2019-01-28T08:19:10.464Z,26.99
2019-01-28T08:21:18.084Z,27.40
2019-01-28T08:23:25.485Z,27.16
2019-01-28T08:25:32.887Z,26.70
2019-01-28T08:27:41.036Z,26.25
2019-01-28T08:29:48.131Z,26.10
2019-01-28T08:31:55.288Z,25.90
2019-01-28T08:34:02.434Z,25.74
2019-01-28T08:36:09.580Z,26.19
2019-01-28T08:38:16.894Z,26.23
2019-01-28T08:40:24.291Z,26.02
2019-01-28T08:42:31.681Z,26.24
2019-01-28T08:44:38.987Z,26.19
2019-01-28T08:46:46.160Z,26.17
2019-01-28T08:48:53.319Z,26.23
2019-01-28T08:51:00.617Z,26.19
2019-01-28T08:53:08.723Z,26.18
2019-01-28T08:55:18.242Z,26.28
2019-01-28T08:57:25.696Z,26.39
2019-01-28T08:59:32.829Z,26.42
2019-01-28T09:01:40.101Z,26.35
2019-01-28T09:03:47.396Z,26.49
2019-01-28T09:05:54.572Z,26.49
2019-01-28T09:08:01.903Z,26.60
2019-01-28T09:10:10.303Z,26.56
2019-01-28T09:12:17.573Z,26.41
2019-01-28T09:14:24.881Z,26.75
2019-01-28T09:16:33.316Z,26.96
2019-01-28T09:18:40.478Z,27.77
2019-01-28T09:20:47.808Z,27.09
2019-01-28T09:22:55.377Z,27.05
2019-01-28T09:25:02.722Z,26.41
2019-01-28T09:27:09.964Z,26.31
2019-01-28T09:29:17.852Z,26.29
2019-01-28T09:31:24.954Z,26.83
2019-01-28T09:33:32.013Z,26.79
2019-01-28T09:35:39.278Z,26.52
2019-01-28T09:37:46.635Z,26.59
2019-01-28T09:39:54.683Z,26.38
2019-01-28T09:42:01.987Z,26.78
2019-01-28T09:44:09.529Z,26.58
2019-01-28T09:46:17.397Z,26.70
2019-01-28T09:48:24.650Z,26.84
2019-01-28T09:50:32.766Z,26.85
2019-01-28T09:52:39.906Z,26.85
2019-01-28T09:54:47.116Z,26.83
2019-01-28T09:56:54.485Z,26.87
2019-01-28T09:59:01.796Z,27.00
2019-01-28T10:01:09.148Z,26.91
2019-01-28T10:03:16.419Z,27.00
2019-01-28T10:05:23.960Z,27.02
2019-01-28T10:07:31.076Z,26.98
2019-01-28T10:09:40.185Z,26.71
2019-01-28T10:11:47.479Z,28.20
2019-01-28T10:13:54.790Z,27.70
2019-01-28T10:16:02.103Z,27.72
2019-01-28T10:18:09.482Z,27.17
2019-01-28T10:20:20.169Z,26.96
2019-01-28T10:22:27.470Z,26.90
2019-01-28T10:24:35.003Z,26.75
2019-01-28T10:27:02.387Z,26.59
2019-01-28T10:29:10.729Z,26.48
2019-01-28T10:31:18.428Z,26.90
2019-01-28T10:33:26.258Z,27.01
2019-01-28T10:35:34.089Z,27.45
2019-01-28T10:37:41.269Z,26.96
2019-01-28T10:39:48.597Z,26.85
2019-01-28T10:41:56.569Z,26.85
2019-01-28T10:44:10.155Z,26.89
2019-01-28T10:46:13.498Z,27.07
2019-01-28T10:48:20.569Z,26.98
2019-01-28T10:50:28.232Z,27.00
2019-01-28T10:52:35.493Z,26.96
2019-01-28T10:54:42.723Z,27.25
2019-01-28T10:56:50.042Z,27.15
2019-01-28T10:58:57.417Z,27.24
2019-01-28T11:01:04.859Z,27.72
2019-01-28T11:03:13.265Z,27.27
2019-01-28T11:05:20.555Z,27.45
2019-01-28T11:07:27.737Z,27.55
2019-01-28T11:09:35.143Z,28.02
2019-01-28T11:11:43.209Z,27.93
2019-01-28T11:13:50.525Z,27.54
2019-01-28T11:15:57.648Z,27.49
2019-01-28T11:18:05.572Z,27.93
2019-01-28T11:20:13.607Z,27.24
2019-01-28T11:22:20.980Z,27.36
2019-01-28T11:24:28.255Z,27.40
2019-01-28T11:26:35.765Z,27.32
2019-01-28T11:28:44.856Z,27.08
2019-01-28T11:30:57.679Z,27.11
2019-01-28T11:33:04.870Z,27.27
2019-01-28T11:35:12.078Z,27.49
2019-01-28T11:37:19.385Z,27.75
2019-01-28T11:39:26.738Z,27.78
2019-01-28T11:41:34.251Z,27.64
2019-01-28T11:43:41.649Z,27.81
2019-01-28T11:45:54.958Z,27.73
2019-01-28T11:48:02.206Z,27.88
2019-01-28T11:50:10.132Z,27.76
2019-01-28T11:52:17.200Z,27.76
2019-01-28T11:54:24.962Z,27.57
2019-01-28T11:56:32.689Z,28.00
2019-01-28T11:58:39.795Z,27.97
2019-01-28T12:00:59.513Z,28.00
2019-01-28T12:03:06.762Z,28.00
2019-01-28T12:05:14.246Z,27.98
2019-01-28T12:07:21.320Z,27.70
2019-01-28T12:09:28.568Z,27.54
2019-01-28T12:11:35.892Z,27.37
2019-01-28T12:13:43.741Z,27.24
2019-01-28T12:15:51.066Z,27.19
2019-01-28T12:17:58.265Z,27.03
2019-01-28T12:20:06.337Z,27.54
2019-01-28T12:22:13.668Z,27.20
2019-01-28T12:24:21.054Z,27.60
2019-01-28T12:26:28.807Z,28.40
2019-01-28T12:28:36.586Z,28.00
2019-01-28T12:30:43.729Z,28.06
2019-01-28T12:32:51.256Z,28.02
2019-01-28T12:34:58.987Z,28.20
2019-01-28T12:37:06.273Z,28.19
2019-01-28T12:39:13.445Z,27.88
2019-01-28T12:41:20.630Z,28.12
2019-01-28T12:43:27.805Z,28.02
2019-01-28T12:45:35.238Z,28.16
2019-01-28T12:47:43.235Z,28.22
2019-01-28T12:49:50.509Z,28.19
2019-01-28T12:51:58.656Z,27.91
2019-01-28T12:54:06.072Z,27.95
2019-01-28T12:56:13.303Z,28.09
2019-01-28T12:58:20.624Z,27.58
2019-01-28T13:00:34.724Z,27.39
2019-01-28T13:02:42.099Z,27.35
2019-01-28T13:04:49.409Z,27.34
2019-01-28T13:06:56.863Z,27.34
2019-01-28T13:09:05.537Z,27.22
2019-01-28T13:11:13.367Z,27.14
2019-01-28T13:13:20.487Z,27.16
2019-01-28T13:15:29.027Z,27.07
2019-01-28T13:17:36.433Z,26.99
2019-01-28T13:19:43.754Z,27.08
2019-01-28T13:21:51.018Z,27.37
2019-01-28T13:23:58.373Z,27.48
2019-01-28T13:26:06.296Z,27.36
2019-01-28T13:28:14.939Z,27.58
2019-01-28T13:30:24.440Z,27.71
2019-01-28T13:32:32.994Z,27.53
2019-01-28T13:34:40.965Z,27.47
2019-01-28T13:36:49.451Z,27.44
2019-01-28T13:38:58.020Z,27.35
2019-01-28T13:41:05.286Z,27.61
2019-01-28T13:43:12.628Z,27.33
2019-01-28T13:45:20.985Z,27.17
2019-01-28T13:47:28.153Z,26.93
2019-01-28T13:49:59.742Z,27.08
2019-01-28T13:52:07.368Z,26.88
2019-01-28T13:54:15.053Z,26.97
2019-01-28T13:56:22.489Z,27.00
2019-01-28T13:58:29.969Z,27.23
2019-01-28T14:00:48.212Z,26.98
2019-01-28T14:02:55.932Z,27.18
2019-01-28T14:05:03.233Z,27.84
2019-01-28T14:07:11.124Z,26.86
2019-01-28T14:09:19.264Z,26.81
2019-01-28T14:11:26.417Z,27.41
2019-01-28T14:13:34.255Z,27.33
2019-01-28T14:15:42.982Z,28.25
2019-01-28T14:17:50.439Z,28.10
2019-01-28T14:19:58.336Z,27.81
2019-01-28T14:22:05.721Z,27.88
2019-01-28T14:24:13.025Z,28.09
2019-01-28T14:26:20.285Z,27.98
2019-01-28T14:28:29.730Z,28.19
2019-01-28T14:31:00.239Z,27.77
2019-01-28T14:33:07.955Z,27.80
2019-01-28T14:35:15.683Z,27.47
2019-01-28T14:37:24.295Z,27.43
2019-01-28T14:39:36.104Z,27.39
2019-01-28T14:42:11.727Z,27.43
2019-01-28T14:44:31.628Z,27.39
2019-01-28T14:46:45.625Z,27.32
2019-01-28T14:49:25.101Z,26.98
2019-01-28T14:51:35.670Z,27.99
2019-01-28T14:53:42.876Z,27.94
2019-01-28T14:55:51.291Z,27.75
2019-01-28T14:58:28.005Z,27.55
2019-01-28T15:00:37.572Z,28.16
2019-01-28T15:02:44.986Z,28.50
2019-01-28T15:04:52.951Z,28.97
2019-01-28T15:07:01.036Z,29.13
2019-01-28T15:09:12.416Z,28.58
2019-01-28T15:11:19.784Z,28.37
2019-01-28T15:13:53.869Z,28.36
2019-01-28T15:16:02.011Z,27.98
2019-01-28T15:18:12.067Z,27.80
2019-01-28T15:20:20.494Z,27.84
2019-01-28T15:22:27.926Z,28.13
2019-01-28T15:24:35.027Z,27.60
2019-01-28T15:26:42.426Z,27.61
2019-01-28T15:28:50.394Z,27.97
2019-01-28T15:30:57.877Z,27.84
2019-01-28T15:33:05.233Z,28.36
2019-01-28T15:35:12.999Z,27.82
2019-01-28T15:37:20.448Z,28.13
2019-01-28T15:39:27.964Z,28.10
2019-01-28T15:41:35.402Z,28.11
2019-01-28T15:43:43.281Z,28.12
2019-01-28T15:45:52.470Z,28.68
2019-01-28T15:47:59.591Z,28.67
2019-01-28T15:50:10.748Z,28.64
2019-01-28T15:52:17.693Z,28.24
2019-01-28T15:54:24.861Z,28.12
2019-01-28T15:56:32.195Z,27.99
2019-01-28T15:58:39.372Z,27.89
2019-01-28T16:00:47.835Z,27.84
2019-01-28T16:02:54.970Z,27.68
2019-01-28T16:05:02.093Z,27.78
2019-01-28T16:07:10.327Z,28.04
2019-01-28T16:09:17.735Z,27.60
2019-01-28T16:11:25.830Z,27.73
2019-01-28T16:13:34.210Z,27.77
2019-01-28T16:15:47.653Z,27.77
2019-01-28T16:17:55.207Z,27.66
2019-01-28T16:20:03.397Z,27.86
2019-01-28T16:22:11.819Z,28.16
2019-01-28T16:24:19.932Z,28.06
2019-01-28T16:26:27.037Z,28.13
2019-01-28T16:28:34.497Z,27.85
2019-01-28T16:30:42.004Z,27.91
2019-01-28T16:32:49.260Z,27.89
2019-01-28T16:34:57.349Z,28.10
2019-01-28T16:37:06.593Z,28.40
2019-01-28T16:39:14.355Z,28.23
2019-01-28T16:41:21.687Z,28.55
2019-01-28T16:43:29.895Z,28.43
2019-01-28T16:45:37.124Z,28.15
2019-01-28T16:47:44.364Z,28.50
2019-01-28T16:49:51.798Z,28.40
2019-01-28T16:52:00.289Z,28.00
2019-01-28T16:54:08.243Z,27.60
2019-01-28T16:56:15.665Z,27.92
2019-01-28T16:58:24.661Z,28.15
2019-01-28T17:00:34.225Z,27.87
2019-01-28T17:02:41.610Z,27.60
2019-01-28T17:04:49.047Z,29.26
2019-01-28T17:06:57.879Z,27.56
2019-01-28T17:09:06.651Z,27.51
2019-01-28T17:11:14.469Z,29.24
2019-01-28T17:13:22.271Z,28.00
2019-01-28T17:15:30.024Z,28.20
2019-01-28T17:17:37.181Z,28.26
2019-01-28T17:19:44.411Z,28.85
2019-01-28T17:21:53.150Z,28.19
2019-01-28T17:24:00.383Z,28.19
2019-01-28T17:26:08.404Z,28.70
2019-01-28T17:28:15.713Z,28.42
2019-01-28T17:30:32.379Z,28.52
2019-01-28T17:32:40.599Z,28.87
2019-01-28T17:34:49.316Z,28.92
2019-01-28T17:36:57.147Z,28.24
2019-01-28T17:39:14.613Z,28.23
2019-01-28T17:41:22.649Z,28.00
2019-01-28T17:43:30.728Z,27.91
2019-01-28T17:45:38.294Z,27.90
2019-01-28T17:47:45.623Z,27.93
2019-01-28T17:50:01.162Z,27.72
2019-01-28T17:52:03.488Z,27.81
2019-01-28T17:54:10.590Z,28.23
2019-01-28T17:56:17.745Z,28.39
2019-01-28T17:58:25.074Z,28.38
2019-01-28T18:00:40.127Z,28.48
2019-01-28T18:02:47.390Z,28.47
2019-01-28T18:05:02.415Z,28.24
2019-01-28T18:07:28.050Z,28.48
2019-01-28T18:09:41.289Z,28.88
2019-01-28T18:11:50.281Z,28.54
2019-01-28T18:13:59.065Z,28.78
2019-01-28T18:16:08.341Z,28.75
2019-01-28T18:18:29.614Z,29.12
2019-01-28T18:20:30.546Z,28.72
2019-01-28T18:22:44.240Z,29.18
2019-01-28T18:24:51.267Z,29.35
2019-01-28T18:26:58.287Z,30.55
2019-01-28T18:29:26.139Z,30.51
2019-01-28T18:31:40.199Z,28.52
2019-01-28T18:33:49.425Z,28.56
2019-01-28T18:36:10.435Z,28.19
2019-01-28T18:38:37.022Z,28.02
2019-01-28T18:40:44.574Z,28.25
2019-01-28T18:43:03.431Z,28.35
2019-01-28T18:45:21.905Z,27.85
2019-01-28T18:47:47.646Z,27.47
2019-01-28T18:49:55.153Z,27.30
2019-01-28T18:52:02.350Z,27.43
2019-01-28T18:57:09.277Z,27.17
2019-01-28T18:59:26.971Z,27.42
2019-01-28T19:01:37.109Z,27.16
2019-01-28T19:03:44.678Z,27.38
2019-01-28T19:07:14.555Z,27.89
2019-01-28T19:08:38.395Z,27.37
2019-01-28T19:11:08.928Z,27.36
2019-01-28T19:14:14.846Z,28.08
2019-01-28T19:19:06.826Z,28.18
2019-01-28T19:21:22.003Z,29.40
2019-01-28T19:23:32.569Z,29.35
2019-01-28T19:25:51.199Z,29.32
2019-01-28T19:28:13.084Z,29.39
2019-01-28T19:30:33.096Z,29.37
2019-01-28T19:32:40.458Z,28.70
2019-01-28T19:34:48.676Z,28.25
2019-01-28T19:36:57.053Z,28.01
2019-01-28T19:39:05.867Z,28.16
2019-01-28T19:41:16.783Z,28.22
2019-01-28T19:43:32.339Z,28.12
2019-01-28T19:45:41.034Z,28.39
2019-01-28T19:47:49.041Z,28.26
2019-01-28T19:49:57.286Z,28.06
2019-01-28T19:52:14.349Z,28.31
2019-01-28T19:54:21.971Z,29.07
2019-01-28T19:56:41.088Z,28.24
2019-01-28T19:58:48.854Z,29.12
2019-01-28T20:00:56.296Z,28.57
2019-01-28T20:03:05.094Z,28.36
2019-01-28T20:05:18.059Z,28.50
2019-01-28T20:07:25.491Z,30.37
2019-01-28T20:09:32.943Z,28.18
2019-01-28T20:11:40.367Z,28.78
2019-01-28T20:13:47.607Z,28.53
2019-01-28T20:15:55.697Z,28.47
2019-01-28T20:18:04.122Z,28.36
2019-01-28T20:20:12.958Z,28.07
2019-01-28T20:22:20.321Z,27.82
2019-01-28T20:24:27.486Z,27.75
2019-01-28T20:26:35.462Z,27.37
2019-01-28T20:28:43.051Z,27.38
2019-01-28T20:30:51.034Z,27.40
2019-01-28T20:32:58.249Z,27.39
2019-01-28T20:35:05.768Z,27.54
2019-01-28T20:37:14.024Z,27.48
2019-01-28T20:39:21.274Z,27.25
2019-01-28T20:41:28.753Z,27.50
2019-01-28T20:43:36.308Z,27.72
2019-01-28T20:45:45.209Z,27.84
2019-01-28T20:47:52.951Z,28.53
2019-01-28T20:50:01.161Z,27.90
2019-01-28T20:52:09.583Z,28.04
2019-01-28T20:54:16.954Z,28.15
2019-01-28T20:56:24.960Z,28.01
2019-01-28T20:58:32.344Z,27.88
2019-01-28T21:00:40.431Z,27.63
2019-01-28T21:02:47.797Z,27.37
2019-01-28T21:04:54.925Z,27.31
2019-01-28T21:07:02.457Z,27.51
2019-01-28T21:09:11.158Z,27.51
2019-01-28T21:11:18.530Z,27.49
2019-01-28T21:13:29.338Z,27.73
2019-01-28T21:15:36.748Z,27.50
2019-01-28T21:17:44.786Z,27.85
2019-01-28T21:19:52.814Z,28.00
2019-01-28T21:22:00.678Z,27.85
2019-01-28T21:24:09.023Z,28.30
2019-01-28T21:27:44.690Z,28.88
2019-01-28T21:28:40.096Z,29.30
2019-01-28T21:30:47.545Z,28.91
2019-01-28T21:32:54.845Z,28.38
2019-01-28T21:35:02.464Z,28.60
2019-01-28T21:37:17.433Z,28.26
2019-01-28T21:39:25.368Z,28.01
2019-01-28T21:41:32.771Z,27.88
2019-01-28T21:43:40.161Z,28.48
2019-01-28T21:45:48.040Z,28.13
2019-01-28T21:47:55.782Z,27.98
2019-01-28T21:50:03.792Z,28.41
2019-01-28T21:52:11.782Z,28.10
2019-01-28T21:54:19.824Z,27.74
2019-01-28T21:56:27.897Z,28.29
2019-01-28T21:58:35.174Z,27.98
2019-01-28T22:00:42.657Z,29.76
2019-01-28T22:02:50.673Z,28.02
2019-01-28T22:04:58.557Z,28.01
2019-01-28T22:07:05.913Z,28.06
2019-01-28T22:09:13.243Z,27.72
2019-01-28T22:11:20.655Z,27.82
2019-01-28T22:13:27.648Z,28.31
2019-01-28T22:15:35.010Z,27.69
2019-01-28T22:17:42.838Z,27.75
2019-01-28T22:19:50.683Z,27.58
2019-01-28T22:21:59.264Z,28.11
2019-01-28T22:24:07.100Z,27.72
2019-01-28T22:26:14.958Z,27.82
2019-01-28T22:28:35.284Z,27.88
2019-01-28T22:30:42.755Z,28.36
2019-01-28T22:33:04.221Z,28.51
2019-01-28T22:35:14.020Z,28.07
2019-01-28T22:37:49.211Z,28.38
2019-01-28T22:39:55.063Z,28.28
2019-01-28T22:42:42.534Z,28.26
2019-01-28T22:45:05.252Z,28.00
2019-01-28T22:47:11.723Z,28.14
2019-01-28T22:49:19.524Z,27.52
2019-01-28T22:51:35.388Z,26.83
2019-01-28T22:54:13.467Z,27.13
2019-01-28T22:56:22.530Z,27.64
2019-01-28T22:58:31.841Z,27.71
2019-01-28T23:00:52.940Z,27.63
2019-01-28T23:03:00.508Z,27.53
2019-01-28T23:05:08.984Z,27.96
2019-01-28T23:07:25.016Z,28.03
2019-01-28T23:09:32.304Z,27.99
2019-01-28T23:11:39.090Z,28.33
2019-01-28T23:13:46.340Z,28.13
2019-01-28T23:15:53.706Z,27.83
2019-01-28T23:18:01.819Z,27.64
2019-01-28T23:20:09.834Z,27.82
2019-01-28T23:22:21.586Z,27.93
2019-01-28T23:24:29.662Z,28.26
2019-01-28T23:26:38.260Z,27.94
2019-01-28T23:28:56.489Z,27.44
2019-01-28T23:31:04.012Z,27.32
2019-01-28T23:33:11.535Z,27.40
2019-01-28T23:35:19.103Z,27.52
2019-01-28T23:37:27.018Z,27.76
2019-01-28T23:39:35.222Z,27.72
2019-01-28T23:41:42.652Z,27.60
2019-01-28T23:43:49.971Z,27.59
2019-01-28T23:45:57.153Z,27.82
2019-01-28T23:48:04.614Z,27.86
2019-01-28T23:50:12.035Z,27.79
2019-01-28T23:52:24.821Z,28.04
2019-01-28T23:54:28.859Z,28.01
2019-01-28T23:56:36.389Z,28.14
2019-01-28T23:58:53.216Z,27.97
